الملاحظات


إضافة رد
 
أدوات الموضوع إبحث في الموضوع
قديم 10-03-2019, 09:21 AM  
  مشاركة [ 1 ]
الصورة الرمزية محمد احمد عسيري
محمد احمد عسيري محمد احمد عسيري غير متواجد حالياً
Flying Way
 
تاريخ التسجيل: 16 - 03 - 2011
المشاركات: 13,279
شكر غيره: 2,934
تم شكره 6,528 مرة في 3,795 مشاركة
عدد المدوّنات: 52
معدل تقييم المستوى: 14567
محمد احمد عسيري يستحق الثقة والتقديرمحمد احمد عسيري يستحق الثقة والتقديرمحمد احمد عسيري يستحق الثقة والتقديرمحمد احمد عسيري يستحق الثقة والتقديرمحمد احمد عسيري يستحق الثقة والتقديرمحمد احمد عسيري يستحق الثقة والتقديرمحمد احمد عسيري يستحق الثقة والتقديرمحمد احمد عسيري يستحق الثقة والتقديرمحمد احمد عسيري يستحق الثقة والتقديرمحمد احمد عسيري يستحق الثقة والتقديرمحمد احمد عسيري يستحق الثقة والتقدير

مشاهدة أوسمتي

محمد احمد عسيري محمد احمد عسيري غير متواجد حالياً
Flying Way


الصورة الرمزية محمد احمد عسيري

مشاهدة ملفه الشخصي
تاريخ التسجيل: 16 - 03 - 2011
المشاركات: 13,279
شكر غيره: 2,934
تم شكره 6,528 مرة في 3,795 مشاركة
عدد المدوّنات: 52
معدل تقييم المستوى: 14567
محمد احمد عسيري يستحق الثقة والتقديرمحمد احمد عسيري يستحق الثقة والتقديرمحمد احمد عسيري يستحق الثقة والتقديرمحمد احمد عسيري يستحق الثقة والتقديرمحمد احمد عسيري يستحق الثقة والتقديرمحمد احمد عسيري يستحق الثقة والتقديرمحمد احمد عسيري يستحق الثقة والتقديرمحمد احمد عسيري يستحق الثقة والتقديرمحمد احمد عسيري يستحق الثقة والتقديرمحمد احمد عسيري يستحق الثقة والتقديرمحمد احمد عسيري يستحق الثقة والتقدير
Exclamation تحطم طائرة من طراز DC-3 اثناء رحلة داخلية بكولومبيا ومقتل 12 شخص على متنها

لقي 12 شخصا على الأقل حتفهم إثر تحطم طائرة من نوع "دي سي 3"، كانت تقوم برحلة داخلية في وسط كولومبيا، السبت، حسبما أعلن جهاز الدفاع المدني.

وكتب الجهاز في تغريدة: "نأسف لحادث الطائرة التي كانت تقوم برحلة بين سان خوسيه ديل غوافياري وفيلافيسنشيو. لقد توفي 12 شخصا".

ووجهت الطائرة نداء استغاثة عند الساعة 10:40 بالتوقيت المحلي، بحسب بيان لهيئة الطيران المدني، قبل أن يتم العثور على هيكلها قرب مدينة فيلافيسنشيو.



_________________________________

Narrative:
The Douglas DC-3 aircraft impacted a rural dirt road near Villavicencio under unknown circumstances. The aircraft fuselage forward of the wings was completely destroyed by the post-impact fire. There are no survivors.

The authorities are trying to establish how many occupants were on board. Local media meanwhile report that there were 11 or 12 persons on board.

https://aviation-safety.net/database...?id=20190309-0
محمد احمد عسيري غير متواجد حالياً   رد مع اقتباس
قديم 10-03-2019, 09:24 AM  
  مشاركة [ 2 ]
الصورة الرمزية محمد احمد عسيري
محمد احمد عسيري محمد احمد عسيري غير متواجد حالياً
Flying Way
 
تاريخ التسجيل: 16 - 03 - 2011
المشاركات: 13,279
شكر غيره: 2,934
تم شكره 6,528 مرة في 3,795 مشاركة
عدد المدوّنات: 52
معدل تقييم المستوى: 14567
محمد احمد عسيري يستحق الثقة والتقديرمحمد احمد عسيري يستحق الثقة والتقديرمحمد احمد عسيري يستحق الثقة والتقديرمحمد احمد عسيري يستحق الثقة والتقديرمحمد احمد عسيري يستحق الثقة والتقديرمحمد احمد عسيري يستحق الثقة والتقديرمحمد احمد عسيري يستحق الثقة والتقديرمحمد احمد عسيري يستحق الثقة والتقديرمحمد احمد عسيري يستحق الثقة والتقديرمحمد احمد عسيري يستحق الثقة والتقديرمحمد احمد عسيري يستحق الثقة والتقدير

مشاهدة أوسمتي

محمد احمد عسيري محمد احمد عسيري غير متواجد حالياً
Flying Way


الصورة الرمزية محمد احمد عسيري

مشاهدة ملفه الشخصي
تاريخ التسجيل: 16 - 03 - 2011
المشاركات: 13,279
شكر غيره: 2,934
تم شكره 6,528 مرة في 3,795 مشاركة
عدد المدوّنات: 52
معدل تقييم المستوى: 14567
محمد احمد عسيري يستحق الثقة والتقديرمحمد احمد عسيري يستحق الثقة والتقديرمحمد احمد عسيري يستحق الثقة والتقديرمحمد احمد عسيري يستحق الثقة والتقديرمحمد احمد عسيري يستحق الثقة والتقديرمحمد احمد عسيري يستحق الثقة والتقديرمحمد احمد عسيري يستحق الثقة والتقديرمحمد احمد عسيري يستحق الثقة والتقديرمحمد احمد عسيري يستحق الثقة والتقديرمحمد احمد عسيري يستحق الثقة والتقديرمحمد احمد عسيري يستحق الثقة والتقدير
Exclamation رد: تحطم طائرة من طراز DC-3 اثناء رحلة داخلية بكولومبيا ومقتل 12 شخص على متنها

Crash: Laser Colombia DC3 near Villavicencio on Mar 9th 2019, lost height on approach


A Laser Aereo Colombia Douglas DC-3, registration HK-2494 performing a flight from San Jose del Guaviare to Villavicencio (Colombia) with 14 people on board, was on approach to Villavicencio when the crew declared emergency at 10:40L (15:40Z), the aircraft subsequently lost height and impacted ground at La Bendicion and burst into flames. All occupants perished in the accident.

Colombia's DGCA reported no survivors were found, the aircraft carried 12 people. The crew had declared emergency while on approach to Villavicencia, the wreckage was found in the village of La Bendicion near Villavicencio (editorial note: located about 2.2nm south of the aerodrome). Later the DGCA published a list of 14 occupants.

Media in Colombia also mention the village of San Martin as location of a Finca La Bendicion. Three such fincas/farms can be found, the closest to the village of San Martin is 25nm south of the aerodrome, another 21 and the third 19nm south of the aerodrome.

Metars:
SKVV 091700Z 12004KT 8000 BKN020 SCT090 28/22 A2992 RMK HZ=
SKVV 091600Z 05004KT 8000 SCT020 BKN090 29/23 A2995 RMK HZ=
SKVV 091500Z 28004KT 8000 SCT020 BKN090 28/23 A2997 RMK HZ=
SKVV 091400Z VRB02KT 8000 FEW020 BKN090 27/23 A2995 RMK HZ=
SKVV 091300Z VRB02KT 8000 FEW020 BKN090 25/23 A2993 RMK HZ=
SKVV 091200Z 28004KT 8000 SCT020 BKN090 25/22 A2991 RMK HZ

Aerial view:


The wreckage seen after the fire was put out:



Map showing the various fincas/farms (Graphics: AVH/Google Earth):


Map (Graphics: AVH/Google Earth):

https://avherald.com/h?article=4c52f8b2&opt=0
محمد احمد عسيري غير متواجد حالياً   رد مع اقتباس
الأعضاء الذين قالوا شكراً لـ محمد احمد عسيري على المشاركة المفيدة:
alzaiem (10-03-2019)
إضافة رد


الذين يشاهدون محتوى الموضوع الآن : 1 ( الأعضاء 0 والزوار 1)
 
أدوات الموضوع إبحث في الموضوع
إبحث في الموضوع:

البحث المتقدم

الانتقال السريع


الساعة الآن 09:56 PM.
Powered by vBulletin® Version 3.8.9
Copyright ©2000 - 2020, vBulletin Solutions, Inc.
حق العلم والمعرفة يعادل حق الحياة للأنسان - لذا نحن كمسؤلين في الشبكة متنازلون عن جميع الحقوق
All trademarks and copyrights held by respective owners. Member comments are owned by the poster.
خط الطيران 2004-2020

 
Copyright FlyingWay © 2020